Time;durP1;ratioP1;P1;durP2;ratioP2;P2;SDS_P1;SDS_P2;PMS_P1;PMS_P2;Temp;Humidity;BMP_temperature;BMP_pressure;BME280_temperature;BME280_humidity;BME280_pressure;Samples;Min_cycle;Max_cycle;Signal;HPM_P1;HPM_P2
2022/01/05 00:01:06;;;;;;;11.82;2.85;;;;;;;;;;4998393;28;20143;-75
2022/01/05 00:03:33;;;;;;;10.85;3.00;;;;;;;;;;4998613;28;20470;-76
2022/01/05 00:05:59;;;;;;;10.18;2.70;;;;;;;;;;4998419;28;20077;-76
2022/01/05 00:08:25;;;;;;;9.32;3.15;;;;;;;;;;4982229;28;20058;-76
2022/01/05 00:10:54;;;;;;;12.02;3.38;;;;;;;;;;4998400;28;20450;-76
2022/01/05 00:13:20;;;;;;;13.55;3.72;;;;;;;;;;4973645;28;20100;-75
2022/01/05 00:15:47;;;;;;;7.38;2.40;;;;;;;;;;4998603;28;20061;-75
2022/01/05 00:18:13;;;;;;;14.70;2.75;;;;;;;;;;4977009;28;20068;-76
2022/01/05 00:20:39;;;;;;;6.85;2.25;;;;;;;;;;4998094;28;20050;-75
2022/01/05 00:23:05;;;;;;;10.00;3.15;;;;;;;;;;4998182;28;20128;-75
2022/01/05 00:25:31;;;;;;;11.70;2.67;;;;;;;;;;4998708;28;20046;-76
2022/01/05 00:27:57;;;;;;;16.40;3.78;;;;;;;;;;4998141;28;20062;-74
2022/01/05 00:30:24;;;;;;;12.70;3.58;;;;;;;;;;4996416;28;20050;-78
2022/01/05 00:32:50;;;;;;;11.32;3.15;;;;;;;;;;4995830;28;20056;-76
2022/01/05 00:35:16;;;;;;;12.10;3.53;;;;;;;;;;4997865;28;20061;-76
2022/01/05 00:37:42;;;;;;;9.27;2.92;;;;;;;;;;4994689;28;20066;-75
2022/01/05 00:40:08;;;;;;;9.10;2.95;;;;;;;;;;5010762;28;20105;-75
2022/01/05 00:42:34;;;;;;;8.48;2.90;;;;;;;;;;5012251;28;20064;-76
2022/01/05 00:45:01;;;;;;;14.10;3.25;;;;;;;;;;4997726;28;20053;-75
2022/01/05 00:47:27;;;;;;;14.75;3.30;;;;;;;;;;4981995;28;20050;-76
2022/01/05 00:49:53;;;;;;;12.77;3.03;;;;;;;;;;4997601;28;20517;-77
2022/01/05 00:52:19;;;;;;;11.50;3.33;;;;;;;;;;5012762;28;20046;-75
2022/01/05 00:54:46;;;;;;;11.57;3.30;;;;;;;;;;4998350;28;20054;-76
2022/01/05 00:57:12;;;;;;;9.48;3.28;;;;;;;;;;4997525;28;20101;-76
2022/01/05 00:59:38;;;;;;;9.20;3.10;;;;;;;;;;4997200;28;20061;-76
2022/01/05 01:02:04;;;;;;;13.23;2.80;;;;;;;;;;4998190;28;20057;-75
2022/01/05 01:04:30;;;;;;;12.70;3.20;;;;;;;;;;4991473;28;20051;-76
2022/01/05 01:06:56;;;;;;;10.52;3.22;;;;;;;;;;5014941;28;20086;-76
2022/01/05 01:09:22;;;;;;;15.57;3.40;;;;;;;;;;4981638;28;20069;-75
2022/01/05 01:11:48;;;;;;;10.18;3.13;;;;;;;;;;4997353;28;20049;-76
2022/01/05 01:14:15;;;;;;;9.63;2.90;;;;;;;;;;4997735;28;20049;-76
2022/01/05 01:16:41;;;;;;;10.95;3.22;;;;;;;;;;5014651;28;20088;-74
2022/01/05 01:19:07;;;;;;;14.23;4.18;;;;;;;;;;5006877;28;20482;-75
2022/01/05 01:21:33;;;;;;;13.73;3.20;;;;;;;;;;4980582;28;20058;-75
2022/01/05 01:23:59;;;;;;;12.18;3.20;;;;;;;;;;4997735;28;20112;-75
2022/01/05 01:26:27;;;;;;;12.00;3.13;;;;;;;;;;4997265;28;20056;-75
2022/01/05 01:28:53;;;;;;;13.88;3.10;;;;;;;;;;4996986;28;20057;-75
2022/01/05 01:31:19;;;;;;;13.48;3.67;;;;;;;;;;4996922;28;20466;-77
2022/01/05 01:33:45;;;;;;;11.20;2.80;;;;;;;;;;4992162;28;20046;-77
2022/01/05 01:36:11;;;;;;;15.98;3.45;;;;;;;;;;4977508;28;20058;-75
2022/01/05 01:38:37;;;;;;;10.85;2.70;;;;;;;;;;4994229;28;20129;-78
2022/01/05 01:41:04;;;;;;;10.02;3.42;;;;;;;;;;4978985;28;20073;-76
2022/01/05 01:43:30;;;;;;;10.15;3.40;;;;;;;;;;4997111;28;20045;-78
2022/01/05 01:45:56;;;;;;;12.75;3.97;;;;;;;;;;4997320;28;20062;-76
2022/01/05 01:48:22;;;;;;;11.73;2.92;;;;;;;;;;4991068;28;20042;-76
2022/01/05 01:50:48;;;;;;;9.23;3.25;;;;;;;;;;4998773;28;20058;-76
2022/01/05 01:53:14;;;;;;;9.43;2.70;;;;;;;;;;4994859;28;20069;-75
2022/01/05 01:55:41;;;;;;;11.30;2.92;;;;;;;;;;5001215;28;20410;-74
2022/01/05 01:58:08;;;;;;;13.57;3.42;;;;;;;;;;5000891;28;20046;-76
2022/01/05 02:00:34;;;;;;;13.85;3.90;;;;;;;;;;5001442;28;20061;-75
2022/01/05 02:03:00;;;;;;;14.35;3.55;;;;;;;;;;5000080;28;20041;-76
2022/01/05 02:05:26;;;;;;;15.38;3.08;;;;;;;;;;5018563;28;20132;-77
2022/01/05 02:07:52;;;;;;;11.55;2.80;;;;;;;;;;5018088;28;20058;-76
2022/01/05 02:10:18;;;;;;;10.05;3.00;;;;;;;;;;5000675;28;20057;-77
2022/01/05 02:12:44;;;;;;;13.20;4.10;;;;;;;;;;4984659;28;20192;-76
2022/01/05 02:15:11;;;;;;;10.88;3.47;;;;;;;;;;4984607;28;20104;-75
2022/01/05 02:17:52;;;;;;;15.93;3.78;;;;;;;;;;4996446;28;20372;-78
2022/01/05 02:20:20;;;;;;;11.30;3.70;;;;;;;;;;4995648;28;20054;-76
2022/01/05 02:22:47;;;;;;;10.38;3.20;;;;;;;;;;4983969;28;20038;-76
2022/01/05 02:25:13;;;;;;;15.20;5.22;;;;;;;;;;4998646;28;20104;-76
2022/01/05 02:27:43;;;;;;;12.50;3.92;;;;;;;;;;4980953;28;20057;-76
2022/01/05 02:30:11;;;;;;;16.50;3.72;;;;;;;;;;5007878;28;20046;-76
2022/01/05 02:32:37;;;;;;;10.43;3.28;;;;;;;;;;5017208;28;20461;-77
2022/01/05 02:35:04;;;;;;;13.77;2.75;;;;;;;;;;5017256;28;20070;-75
2022/01/05 02:37:30;;;;;;;14.20;3.85;;;;;;;;;;5000304;28;20057;-76
2022/01/05 02:39:57;;;;;;;16.40;3.75;;;;;;;;;;5000382;28;20049;-76
2022/01/05 02:42:30;;;;;;;14.13;3.47;;;;;;;;;;4983917;28;20454;-77
2022/01/05 02:44:56;;;;;;;14.98;3.42;;;;;;;;;;4997895;28;20039;-76
2022/01/05 02:47:22;;;;;;;10.68;3.00;;;;;;;;;;4997294;28;20034;-78
2022/01/05 02:49:48;;;;;;;15.82;3.20;;;;;;;;;;4983718;28;20065;-75
2022/01/05 02:52:15;;;;;;;10.60;2.95;;;;;;;;;;4980552;28;20058;-75
2022/01/05 02:54:41;;;;;;;17.30;3.90;;;;;;;;;;4975657;28;20104;-78
2022/01/05 02:57:08;;;;;;;8.68;2.45;;;;;;;;;;4972052;28;20050;-81
2022/01/05 03:06:04;;;;;;;13.43;3.10;;;;;;;;;;4964422;28;20045;-79
2022/01/05 03:11:57;;;;;;;16.23;3.72;;;;;;;;;;4997280;28;20380;-83
2022/01/05 03:14:26;;;;;;;15.77;3.42;;;;;;;;;;4960021;28;20046;-85
2022/01/05 03:20:22;;;;;;;10.43;3.33;;;;;;;;;;4926475;28;20051;-80
2022/01/05 03:22:54;;;;;;;13.40;3.17;;;;;;;;;;4965150;28;20050;-80
2022/01/05 03:25:20;;;;;;;15.60;3.53;;;;;;;;;;4980924;28;20057;-79
2022/01/05 03:27:50;;;;;;;13.38;3.17;;;;;;;;;;4957985;28;20046;-78
2022/01/05 03:30:20;;;;;;;11.30;3.50;;;;;;;;;;4963900;28;20101;-78
2022/01/05 03:35:26;;;;;;;12.32;3.03;;;;;;;;;;4979709;28;20058;-79
2022/01/05 03:37:52;;;;;;;7.07;2.67;;;;;;;;;;4979426;28;20050;-79
2022/01/05 03:40:18;;;;;;;8.65;2.42;;;;;;;;;;4962977;28;20050;-78
2022/01/05 03:42:44;;;;;;;9.93;2.95;;;;;;;;;;4979872;28;20108;-79
2022/01/05 03:45:11;;;;;;;10.40;2.65;;;;;;;;;;4979611;28;20396;-78
2022/01/05 03:47:37;;;;;;;15.32;3.65;;;;;;;;;;4962868;28;20133;-79
2022/01/05 03:50:03;;;;;;;11.45;3.47;;;;;;;;;;4960152;28;20046;-77
2022/01/05 03:52:29;;;;;;;16.42;3.95;;;;;;;;;;4978126;28;20043;-77
2022/01/05 03:54:55;;;;;;;12.57;3.03;;;;;;;;;;4977151;28;20373;-77
2022/01/05 03:57:21;;;;;;;16.00;3.22;;;;;;;;;;4977286;28;20038;-77
2022/01/05 03:59:48;;;;;;;12.20;3.00;;;;;;;;;;4963171;28;20114;-78
2022/01/05 04:02:14;;;;;;;16.50;3.85;;;;;;;;;;4962911;28;20034;-77
2022/01/05 04:04:40;;;;;;;12.98;3.42;;;;;;;;;;4962869;28;20049;-77
2022/01/05 04:07:06;;;;;;;16.50;3.60;;;;;;;;;;4975133;28;20039;-78
2022/01/05 04:09:32;;;;;;;15.02;3.20;;;;;;;;;;4978232;28;20054;-78
2022/01/05 04:11:58;;;;;;;12.35;3.40;;;;;;;;;;4974417;28;20371;-77
2022/01/05 04:14:24;;;;;;;11.73;2.72;;;;;;;;;;4977426;28;20050;-78
2022/01/05 04:16:50;;;;;;;11.68;2.88;;;;;;;;;;4978428;28;20046;-77
2022/01/05 04:19:17;;;;;;;11.85;3.20;;;;;;;;;;4978092;28;20046;-76
2022/01/05 04:21:43;;;;;;;17.98;3.30;;;;;;;;;;4978806;28;20046;-76
2022/01/05 04:24:09;;;;;;;12.82;3.17;;;;;;;;;;4971037;28;20050;-77
2022/01/05 04:26:35;;;;;;;11.02;3.17;;;;;;;;;;4966552;28;20041;-78
2022/01/05 04:29:01;;;;;;;10.90;3.15;;;;;;;;;;4962917;28;20096;-75
2022/01/05 04:31:27;;;;;;;13.20;3.47;;;;;;;;;;4978331;28;20454;-75
2022/01/05 04:33:53;;;;;;;11.25;3.00;;;;;;;;;;4978453;28;20378;-75
2022/01/05 04:36:19;;;;;;;10.75;3.55;;;;;;;;;;4978616;28;20125;-77
2022/01/05 04:38:45;;;;;;;15.05;3.75;;;;;;;;;;5015872;28;20073;-76
2022/01/05 04:41:11;;;;;;;18.88;4.57;;;;;;;;;;4984669;28;20052;-77
2022/01/05 04:43:37;;;;;;;17.65;4.00;;;;;;;;;;4978328;28;20335;-76
2022/01/05 04:46:03;;;;;;;18.35;4.53;;;;;;;;;;4978254;28;20042;-77
2022/01/05 04:48:29;;;;;;;14.05;3.85;;;;;;;;;;4978015;28;20038;-79
2022/01/05 04:50:55;;;;;;;11.07;3.00;;;;;;;;;;4978050;28;20038;-74
2022/01/05 04:53:21;;;;;;;10.57;3.47;;;;;;;;;;4978029;28;20069;-74
2022/01/05 04:55:48;;;;;;;13.75;4.03;;;;;;;;;;4977728;28;20061;-77
2022/01/05 04:58:14;;;;;;;15.70;3.47;;;;;;;;;;4961902;28;20046;-79
2022/01/05 05:04:05;;;;;;;13.80;3.03;;;;;;;;;;4935226;29;20473;-80
2022/01/05 05:07:05;;;;;;;14.48;3.00;;;;;;;;;;4909306;29;20050;-80
2022/01/05 05:09:31;;;;;;;12.05;3.30;;;;;;;;;;4901023;29;20091;-81
2022/01/05 05:11:58;;;;;;;14.02;2.75;;;;;;;;;;4919270;29;20040;-75
2022/01/05 05:14:24;;;;;;;11.20;3.17;;;;;;;;;;4929885;28;20105;-75
2022/01/05 05:16:50;;;;;;;11.13;3.08;;;;;;;;;;4977519;28;20385;-77
2022/01/05 05:19:16;;;;;;;12.70;2.70;;;;;;;;;;4978559;28;20133;-74
2022/01/05 05:21:42;;;;;;;3.17;1.30;;;;;;;;;;4977938;28;20450;-75
2022/01/05 05:24:10;;;;;;;8.77;2.15;;;;;;;;;;4986008;28;20422;-76
2022/01/05 05:26:36;;;;;;;10.65;1.90;;;;;;;;;;4977267;28;20463;-82
2022/01/05 05:32:35;;;;;;;7.93;2.40;;;;;;;;;;4994472;28;20482;-80
2022/01/05 05:35:05;;;;;;;9.57;2.60;;;;;;;;;;4970492;28;20458;-79
2022/01/05 05:37:48;;;;;;;12.40;2.60;;;;;;;;;;4974168;28;20450;-81
2022/01/05 05:40:14;;;;;;;8.15;2.63;;;;;;;;;;4976791;28;20142;-75
2022/01/05 05:42:41;;;;;;;10.07;2.75;;;;;;;;;;4977323;28;20061;-77
2022/01/05 05:45:07;;;;;;;10.82;2.80;;;;;;;;;;4982161;28;20482;-80
2022/01/05 05:51:55;;;;;;;15.85;3.42;;;;;;;;;;4969049;28;20130;-81
2022/01/05 05:54:40;;;;;;;17.92;3.60;;;;;;;;;;4965558;28;20148;-80
2022/01/05 05:57:20;;;;;;;16.00;3.55;;;;;;;;;;4961299;28;20042;-81
2022/01/05 05:59:46;;;;;;;23.73;4.30;;;;;;;;;;4961329;28;20065;-75
2022/01/05 06:02:12;;;;;;;18.30;4.80;;;;;;;;;;4977810;28;20046;-73
2022/01/05 06:04:38;;;;;;;19.00;4.03;;;;;;;;;;4993696;28;20054;-73
2022/01/05 06:07:05;;;;;;;18.35;4.22;;;;;;;;;;4977754;28;20090;-74
2022/01/05 06:09:31;;;;;;;11.93;3.13;;;;;;;;;;4976875;28;20042;-79
2022/01/05 06:11:57;;;;;;;12.65;3.00;;;;;;;;;;4994591;28;20043;-81
2022/01/05 06:21:08;;;;;;;10.85;3.10;;;;;;;;;;5012680;28;20088;-80
2022/01/05 06:23:35;;;;;;;11.45;2.95;;;;;;;;;;4989168;28;20053;-78
2022/01/05 06:26:01;;;;;;;13.10;2.85;;;;;;;;;;4977112;28;20042;-82
2022/01/05 06:28:27;;;;;;;18.70;4.05;;;;;;;;;;4976771;28;20378;-82
2022/01/05 06:30:54;;;;;;;13.98;4.28;;;;;;;;;;4961356;28;20042;-85
2022/01/05 06:33:30;;;;;;;17.45;3.50;;;;;;;;;;4961005;28;20088;-80
2022/01/05 06:35:59;;;;;;;17.33;3.15;;;;;;;;;;4979039;28;20224;-77
2022/01/05 06:38:25;;;;;;;12.93;3.38;;;;;;;;;;4983316;28;20050;-76
2022/01/05 06:40:51;;;;;;;12.85;3.60;;;;;;;;;;4999947;28;20045;-80
2022/01/05 06:43:20;;;;;;;13.02;3.05;;;;;;;;;;4983855;28;20038;-82
2022/01/05 06:49:05;;;;;;;11.50;2.85;;;;;;;;;;4966114;28;20153;-81
2022/01/05 06:57:41;;;;;;;11.57;2.80;;;;;;;;;;4956141;29;20037;-81
2022/01/05 07:03:34;;;;;;;9.98;2.65;;;;;;;;;;5015000;28;20058;-80
2022/01/05 07:06:11;;;;;;;14.88;3.50;;;;;;;;;;4978979;28;20058;-80
2022/01/05 07:09:06;;;;;;;;;;;;;;;;;;;;;
2022/01/05 07:11:32;;;;;;;13.40;2.90;;;;;;;;;;4959530;28;20050;-80
2022/01/05 07:13:59;;;;;;;15.43;2.80;;;;;;;;;;4979253;28;20135;-80
2022/01/05 07:16:25;;;;;;;13.60;3.35;;;;;;;;;;4987893;28;20057;-80
2022/01/05 07:19:00;;;;;;;14.30;3.33;;;;;;;;;;4983119;28;20084;-81
2022/01/05 07:21:26;;;;;;;10.63;3.70;;;;;;;;;;4972258;28;20094;-79
2022/01/05 07:23:55;;;;;;;16.40;3.58;;;;;;;;;;4979073;28;20053;-80
2022/01/05 07:26:32;;;;;;;10.23;2.50;;;;;;;;;;4982829;28;20135;-80
2022/01/05 07:28:58;;;;;;;17.40;2.92;;;;;;;;;;4982654;28;20192;-82
2022/01/05 07:31:24;;;;;;;18.30;4.05;;;;;;;;;;4983224;28;20046;-72
2022/01/05 07:33:50;;;;;;;10.68;3.05;;;;;;;;;;4999190;28;20077;-70
2022/01/05 07:36:16;;;;;;;6.38;2.20;;;;;;;;;;5015618;28;20085;-72
2022/01/05 07:38:43;;;;;;;5.43;1.80;;;;;;;;;;4999151;28;20046;-72
2022/01/05 07:41:09;;;;;;;8.57;2.00;;;;;;;;;;4999160;28;20069;-73
2022/01/05 07:43:35;;;;;;;10.80;2.67;;;;;;;;;;5015854;28;20046;-75
2022/01/05 07:46:01;;;;;;;8.95;2.78;;;;;;;;;;4998988;28;20054;-75
2022/01/05 07:48:28;;;;;;;6.85;2.30;;;;;;;;;;4997556;28;20046;-78
2022/01/05 07:50:54;;;;;;;11.25;2.20;;;;;;;;;;4981235;28;20057;-79
2022/01/05 07:53:21;;;;;;;11.52;2.60;;;;;;;;;;4983100;28;20135;-80
2022/01/05 07:55:47;;;;;;;19.77;3.78;;;;;;;;;;4991773;28;20045;-81
2022/01/05 07:58:14;;;;;;;13.30;3.83;;;;;;;;;;4982299;28;20045;-80
2022/01/05 08:00:40;;;;;;;14.43;3.67;;;;;;;;;;4986505;28;20063;-79
2022/01/05 08:03:06;;;;;;;11.45;3.50;;;;;;;;;;4990399;28;20045;-80
2022/01/05 08:05:38;;;;;;;20.45;4.03;;;;;;;;;;4986300;28;20045;-80
2022/01/05 08:08:14;;;;;;;16.98;3.80;;;;;;;;;;4986168;28;20077;-81
2022/01/05 08:10:40;;;;;;;14.15;3.05;;;;;;;;;;4975179;28;20049;-79
2022/01/05 08:13:32;;;;;;;14.75;3.30;;;;;;;;;;4998178;28;20458;-79
2022/01/05 08:15:58;;;;;;;11.60;3.20;;;;;;;;;;4981971;28;20052;-80
2022/01/05 08:18:24;;;;;;;16.42;3.28;;;;;;;;;;4958707;28;20203;-79
2022/01/05 08:20:50;;;;;;;14.40;3.35;;;;;;;;;;4942065;28;20074;-79
2022/01/05 08:23:17;;;;;;;17.17;4.00;;;;;;;;;;4958146;28;20043;-79
2022/01/05 08:25:43;;;;;;;16.42;4.00;;;;;;;;;;4960229;28;20471;-80
2022/01/05 08:28:11;;;;;;;13.77;3.65;;;;;;;;;;4976965;28;20050;-78
2022/01/05 08:30:37;;;;;;;17.58;3.90;;;;;;;;;;4984841;28;20042;-77
2022/01/05 08:33:04;;;;;;;14.45;3.63;;;;;;;;;;4956951;28;20054;-77
2022/01/05 08:35:30;;;;;;;9.10;2.25;;;;;;;;;;4953016;28;20491;-77
2022/01/05 08:37:56;;;;;;;9.45;2.50;;;;;;;;;;4952952;28;20483;-77
2022/01/05 08:40:24;;;;;;;10.27;2.50;;;;;;;;;;4965914;28;20046;-77
2022/01/05 08:42:50;;;;;;;9.07;2.35;;;;;;;;;;4933762;29;20055;-78
2022/01/05 08:45:22;;;;;;;7.40;2.40;;;;;;;;;;4922757;29;20106;-81
2022/01/05 08:47:49;;;;;;;10.40;2.10;;;;;;;;;;4938129;29;20356;-78
2022/01/05 08:50:25;;;;;;;8.93;2.63;;;;;;;;;;4959762;28;20050;-76
2022/01/05 08:52:52;;;;;;;12.18;2.83;;;;;;;;;;4978045;28;20049;-79
2022/01/05 08:55:19;;;;;;;6.95;2.33;;;;;;;;;;4995316;28;20046;-78
2022/01/05 08:57:46;;;;;;;10.85;2.67;;;;;;;;;;4980416;28;20042;-79
2022/01/05 09:00:12;;;;;;;12.35;2.85;;;;;;;;;;4984009;28;20462;-76
2022/01/05 09:02:39;;;;;;;9.73;3.15;;;;;;;;;;4977518;28;20046;-80
2022/01/05 09:05:05;;;;;;;14.52;3.35;;;;;;;;;;4977419;28;20053;-79
2022/01/05 09:07:31;;;;;;;13.00;3.40;;;;;;;;;;4995280;28;20061;-78
2022/01/05 09:09:57;;;;;;;16.55;3.17;;;;;;;;;;4978388;28;20060;-79
2022/01/05 09:12:24;;;;;;;12.88;3.20;;;;;;;;;;4992792;28;20446;-78
2022/01/05 09:14:50;;;;;;;17.67;3.38;;;;;;;;;;4977986;28;20141;-78
2022/01/05 09:17:16;;;;;;;12.43;3.22;;;;;;;;;;4994422;28;20129;-78
2022/01/05 09:19:42;;;;;;;12.45;3.90;;;;;;;;;;4965318;28;20046;-78
2022/01/05 09:22:09;;;;;;;17.50;3.33;;;;;;;;;;4994859;28;20057;-79
2022/01/05 09:24:36;;;;;;;15.55;4.07;;;;;;;;;;4977681;28;20057;-78
2022/01/05 09:27:04;;;;;;;15.45;3.58;;;;;;;;;;4961702;28;20046;-77
2022/01/05 09:29:31;;;;;;;21.35;4.30;;;;;;;;;;4977268;28;20050;-78
2022/01/05 09:32:02;;;;;;;16.42;3.78;;;;;;;;;;4982608;28;20451;-77
2022/01/05 09:34:29;;;;;;;12.80;3.70;;;;;;;;;;4980909;28;20054;-77
2022/01/05 09:36:59;;;;;;;17.42;3.70;;;;;;;;;;4986573;28;20053;-77
2022/01/05 09:42:10;;;;;;;10.82;2.80;;;;;;;;;;4978817;28;20505;-77
2022/01/05 09:44:41;;;;;;;14.68;3.38;;;;;;;;;;4982537;28;20458;-78
2022/01/05 09:47:26;;;;;;;12.40;3.03;;;;;;;;;;4994920;28;20043;-77
2022/01/05 09:50:04;;;;;;;14.05;3.10;;;;;;;;;;4977518;28;20062;-78
2022/01/05 09:52:33;;;;;;;14.35;3.15;;;;;;;;;;4977521;28;20056;-78
2022/01/05 09:55:07;;;;;;;12.52;3.45;;;;;;;;;;4994968;28;20057;-80
2022/01/05 09:57:33;;;;;;;15.70;3.70;;;;;;;;;;4961731;28;20043;-76
2022/01/05 10:00:00;;;;;;;15.25;4.03;;;;;;;;;;4977147;28;20041;-80
2022/01/05 10:02:26;;;;;;;15.70;4.40;;;;;;;;;;4977412;28;20569;-81
2022/01/05 10:04:52;;;;;;;22.52;4.30;;;;;;;;;;4977353;28;20133;-79
2022/01/05 10:07:19;;;;;;;18.45;4.90;;;;;;;;;;4977345;28;20050;-79
2022/01/05 10:09:45;;;;;;;16.80;4.53;;;;;;;;;;4978311;28;20063;-75
2022/01/05 10:12:13;;;;;;;16.95;3.90;;;;;;;;;;4957056;28;20054;-76
2022/01/05 10:14:43;;;;;;;19.90;4.82;;;;;;;;;;4980107;28;20054;-78
2022/01/05 10:17:09;;;;;;;16.42;4.32;;;;;;;;;;4980679;28;20153;-76
2022/01/05 10:19:36;;;;;;;14.80;3.85;;;;;;;;;;4981114;28;20078;-77
2022/01/05 10:22:02;;;;;;;17.80;3.88;;;;;;;;;;4980952;28;20117;-82
2022/01/05 10:25:00;;;;;;;21.92;4.07;;;;;;;;;;4980073;28;20045;-79
2022/01/05 10:27:28;;;;;;;16.75;3.58;;;;;;;;;;4997622;28;20039;-78
2022/01/05 10:29:57;;;;;;;18.75;3.80;;;;;;;;;;4980731;28;20050;-75
2022/01/05 10:32:24;;;;;;;19.10;4.60;;;;;;;;;;4980535;28;20050;-78
2022/01/05 10:35:04;;;;;;;19.05;4.43;;;;;;;;;;4977314;28;20538;-77
2022/01/05 10:37:30;;;;;;;18.83;5.07;;;;;;;;;;4996790;28;20397;-72
2022/01/05 10:40:04;;;;;;;18.08;4.72;;;;;;;;;;4999777;28;20072;-77
2022/01/05 10:42:34;;;;;;;20.08;4.60;;;;;;;;;;4999525;28;20060;-78
2022/01/05 10:45:02;;;;;;;20.20;4.30;;;;;;;;;;4998863;28;20045;-78
2022/01/05 10:47:29;;;;;;;20.08;4.57;;;;;;;;;;5000248;28;20145;-77
2022/01/05 10:49:55;;;;;;;18.60;4.57;;;;;;;;;;5000239;28;20478;-78
2022/01/05 10:52:21;;;;;;;18.95;4.38;;;;;;;;;;5000274;28;20053;-78
2022/01/05 10:54:47;;;;;;;16.40;4.80;;;;;;;;;;4999968;28;20053;-78
2022/01/05 10:57:14;;;;;;;24.20;5.00;;;;;;;;;;4998737;28;20441;-78
2022/01/05 10:59:44;;;;;;;15.80;4.68;;;;;;;;;;5003665;28;20054;-78
2022/01/05 11:02:30;;;;;;;17.40;4.05;;;;;;;;;;5019064;28;20125;-77
2022/01/05 11:05:12;;;;;;;19.10;4.28;;;;;;;;;;4999437;28;20099;-77
2022/01/05 11:07:42;;;;;;;17.77;3.45;;;;;;;;;;4983361;28;20473;-77
2022/01/05 11:10:09;;;;;;;24.25;4.93;;;;;;;;;;5016862;28;20103;-75
2022/01/05 11:12:52;;;;;;;21.27;4.70;;;;;;;;;;5016730;28;20049;-76
2022/01/05 11:15:28;;;;;;;17.55;4.18;;;;;;;;;;4964326;28;20093;-75
2022/01/05 11:18:13;;;;;;;17.45;4.25;;;;;;;;;;4979772;28;20141;-76
2022/01/05 11:20:42;;;;;;;16.13;3.78;;;;;;;;;;5005875;28;20057;-77
2022/01/05 11:23:08;;;;;;;7.97;3.45;;;;;;;;;;4998736;28;20092;-76
2022/01/05 11:25:36;;;;;;;13.55;3.70;;;;;;;;;;4999637;28;20374;-78
2022/01/05 11:28:02;;;;;;;19.25;4.22;;;;;;;;;;4998610;28;20092;-78
2022/01/05 11:30:28;;;;;;;18.35;4.28;;;;;;;;;;4999927;28;20049;-76
2022/01/05 11:32:55;;;;;;;15.52;3.85;;;;;;;;;;4999653;28;20160;-77
2022/01/05 11:35:21;;;;;;;20.50;4.43;;;;;;;;;;4999549;28;20060;-79
2022/01/05 11:37:47;;;;;;;21.85;4.00;;;;;;;;;;5016025;28;20437;-78
2022/01/05 11:40:14;;;;;;;20.63;4.78;;;;;;;;;;4999365;28;20117;-77
2022/01/05 11:42:41;;;;;;;18.20;4.55;;;;;;;;;;4998586;28;20058;-77
2022/01/05 11:45:08;;;;;;;12.43;3.78;;;;;;;;;;5016089;28;20133;-77
2022/01/05 11:47:37;;;;;;;13.95;3.70;;;;;;;;;;4999277;28;20050;-77
2022/01/05 11:50:15;;;;;;;13.05;3.00;;;;;;;;;;5016344;28;20081;-77
2022/01/05 11:53:00;;;;;;;14.10;4.10;;;;;;;;;;5016423;28;20108;-77
2022/01/05 11:55:28;;;;;;;18.48;3.50;;;;;;;;;;4982344;28;20056;-78
2022/01/05 11:58:13;;;;;;;18.17;3.60;;;;;;;;;;4982172;28;20041;-79
2022/01/05 12:00:39;;;;;;;11.52;3.35;;;;;;;;;;4998248;28;20042;-77
2022/01/05 12:03:05;;;;;;;10.40;3.80;;;;;;;;;;4998019;28;20103;-78
2022/01/05 12:05:50;;;;;;;13.85;3.60;;;;;;;;;;5013328;28;20377;-78
2022/01/05 12:08:35;;;;;;;10.73;3.65;;;;;;;;;;4996423;28;20408;-79
2022/01/05 12:11:01;;;;;;;14.85;4.45;;;;;;;;;;4998294;28;20049;-78
2022/01/05 12:13:37;;;;;;;16.17;3.97;;;;;;;;;;5015938;28;20048;-77
2022/01/05 12:16:04;;;;;;;20.35;4.10;;;;;;;;;;4997957;28;20096;-78
2022/01/05 12:18:33;;;;;;;19.60;4.10;;;;;;;;;;5014723;28;20061;-78
2022/01/05 12:21:00;;;;;;;15.98;4.18;;;;;;;;;;5015094;28;20097;-78
2022/01/05 12:23:27;;;;;;;19.02;4.68;;;;;;;;;;4980464;28;20089;-77
2022/01/05 12:26:07;;;;;;;21.92;5.40;;;;;;;;;;5015077;28;20886;-77
2022/01/05 12:28:36;;;;;;;21.98;5.28;;;;;;;;;;4996724;28;20491;-78
2022/01/05 12:31:02;;;;;;;23.10;5.10;;;;;;;;;;5014332;28;20057;-78
2022/01/05 12:33:41;;;;;;;22.15;5.07;;;;;;;;;;4986449;28;20038;-78
2022/01/05 12:36:08;;;;;;;21.13;4.63;;;;;;;;;;4997957;28;20065;-77
2022/01/05 12:38:37;;;;;;;19.08;4.63;;;;;;;;;;5017068;28;20057;-78
2022/01/05 12:41:22;;;;;;;18.17;4.45;;;;;;;;;;5004535;28;20434;-78
2022/01/05 12:43:49;;;;;;;14.70;3.83;;;;;;;;;;5018378;28;20060;-77
2022/01/05 12:46:32;;;;;;;17.48;3.88;;;;;;;;;;4999118;28;20068;-78
2022/01/05 12:48:58;;;;;;;18.00;4.38;;;;;;;;;;5035133;28;20469;-78
2022/01/05 12:51:32;;;;;;;15.20;3.95;;;;;;;;;;5017376;28;20053;-77
2022/01/05 12:54:02;;;;;;;16.15;3.83;;;;;;;;;;5018114;28;20154;-78
2022/01/05 12:56:33;;;;;;;16.45;3.80;;;;;;;;;;5001657;28;20069;-77
2022/01/05 12:59:00;;;;;;;17.38;3.88;;;;;;;;;;5011146;28;20485;-77
2022/01/05 13:01:27;;;;;;;17.85;4.28;;;;;;;;;;4996380;28;20485;-79
2022/01/05 13:03:54;;;;;;;21.73;5.78;;;;;;;;;;5012032;28;20056;-78
2022/01/05 13:06:23;;;;;;;17.50;4.60;;;;;;;;;;4983580;28;20466;-78
2022/01/05 13:08:50;;;;;;;20.38;4.50;;;;;;;;;;5000682;28;20041;-83
2022/01/05 13:11:32;;;;;;;10.75;2.97;;;;;;;;;;4998127;28;20446;-72
2022/01/05 13:14:14;;;;;;;15.65;3.63;;;;;;;;;;5015144;28;20053;-76
2022/01/05 13:16:44;;;;;;;20.33;3.58;;;;;;;;;;4997017;28;20101;-80
2022/01/05 13:19:21;;;;;;;16.33;3.58;;;;;;;;;;4997661;28;20045;-81
2022/01/05 13:21:48;;;;;;;13.50;3.70;;;;;;;;;;4997474;28;20370;-83
2022/01/05 13:31:13;;;;;;;14.50;3.72;;;;;;;;;;4977912;28;20081;-79
2022/01/05 13:33:45;;;;;;;11.43;3.42;;;;;;;;;;4962675;28;20046;-81
2022/01/05 13:36:14;;;;;;;15.05;4.10;;;;;;;;;;4978944;28;20438;-82
2022/01/05 13:39:08;;;;;;;15.15;3.03;;;;;;;;;;4980804;28;20053;-78
2022/01/05 13:41:34;;;;;;;12.73;3.20;;;;;;;;;;4987455;28;20491;-78
2022/01/05 13:44:00;;;;;;;14.00;3.28;;;;;;;;;;4978071;28;20206;-80
2022/01/05 13:46:35;;;;;;;15.20;3.47;;;;;;;;;;5004853;28;20489;-83
2022/01/05 13:49:17;;;;;;;16.55;4.32;;;;;;;;;;4989862;28;20188;-78
2022/01/05 13:51:43;;;;;;;17.70;3.65;;;;;;;;;;4991938;28;20042;-78
2022/01/05 13:54:10;;;;;;;22.02;4.60;;;;;;;;;;4978654;28;20053;-78
2022/01/05 13:56:40;;;;;;;16.58;3.92;;;;;;;;;;4998056;28;20042;-78
2022/01/05 13:59:06;;;;;;;28.23;4.82;;;;;;;;;;4981324;28;20113;-76
2022/01/05 14:01:37;;;;;;;21.33;4.53;;;;;;;;;;4993037;28;20080;-82
2022/01/05 14:04:10;;;;;;;16.15;4.00;;;;;;;;;;4993589;28;20053;-78
2022/01/05 14:06:36;;;;;;;15.82;3.88;;;;;;;;;;4979624;28;20050;-79
2022/01/05 14:09:04;;;;;;;17.58;4.68;;;;;;;;;;4996456;28;20045;-79
2022/01/05 14:11:39;;;;;;;16.38;4.22;;;;;;;;;;4996954;28;20092;-80
2022/01/05 14:14:07;;;;;;;19.77;3.92;;;;;;;;;;4995841;28;20123;-82
2022/01/05 14:16:40;;;;;;;22.15;6.18;;;;;;;;;;4979533;28;20050;-79
2022/01/05 14:19:10;;;;;;;20.63;4.65;;;;;;;;;;4979368;28;20054;-80
2022/01/05 14:21:41;;;;;;;20.35;4.80;;;;;;;;;;4980303;28;20088;-80
2022/01/05 14:24:12;;;;;;;21.08;5.13;;;;;;;;;;4980460;28;20052;-80
2022/01/05 14:26:42;;;;;;;15.65;4.00;;;;;;;;;;4979872;28;20128;-80
2022/01/05 14:29:18;;;;;;;24.05;5.25;;;;;;;;;;4973217;28;20046;-80
2022/01/05 14:31:52;;;;;;;24.98;4.95;;;;;;;;;;4973358;28;20447;-76
2022/01/05 14:34:23;;;;;;;22.65;4.57;;;;;;;;;;5004622;28;20109;-77
2022/01/05 14:36:53;;;;;;;13.63;3.53;;;;;;;;;;4955975;28;20459;-79
2022/01/05 14:39:21;;;;;;;12.80;3.58;;;;;;;;;;4958265;28;20137;-80
2022/01/05 14:41:59;;;;;;;11.98;2.85;;;;;;;;;;4961071;28;20378;-80
2022/01/05 14:44:36;;;;;;;11.48;3.13;;;;;;;;;;4961543;28;20105;-82
2022/01/05 14:47:07;;;;;;;17.15;3.53;;;;;;;;;;4957280;28;20126;-79
2022/01/05 14:49:38;;;;;;;13.15;3.58;;;;;;;;;;4958830;28;20106;-80
2022/01/05 14:52:08;;;;;;;10.98;3.22;;;;;;;;;;4961145;28;20077;-80
2022/01/05 14:54:38;;;;;;;16.42;3.85;;;;;;;;;;4976851;28;20439;-77
2022/01/05 14:57:06;;;;;;;16.40;3.58;;;;;;;;;;4988929;28;20044;-75
2022/01/05 14:59:56;;;;;;;12.57;3.20;;;;;;;;;;4965460;28;20034;-80
2022/01/05 15:02:22;;;;;;;10.23;2.80;;;;;;;;;;4977784;28;20081;-81
2022/01/05 15:04:48;;;;;;;14.27;3.15;;;;;;;;;;4979703;28;20050;-80
2022/01/05 15:07:14;;;;;;;20.88;3.85;;;;;;;;;;4979637;28;20324;-78
2022/01/05 15:09:43;;;;;;;14.13;3.60;;;;;;;;;;4980492;28;20035;-80
2022/01/05 15:12:12;;;;;;;15.13;4.28;;;;;;;;;;4978555;28;20133;-80
2022/01/05 15:14:38;;;;;;;16.27;3.58;;;;;;;;;;4986808;28;20053;-79
2022/01/05 15:17:05;;;;;;;16.95;4.20;;;;;;;;;;4960060;28;20480;-78
2022/01/05 15:19:31;;;;;;;23.25;4.47;;;;;;;;;;4968549;28;20042;-79
2022/01/05 15:21:57;;;;;;;20.30;5.90;;;;;;;;;;4998941;28;20046;-79
2022/01/05 15:24:23;;;;;;;19.42;4.53;;;;;;;;;;4979251;28;20038;-79
2022/01/05 15:26:49;;;;;;;21.25;5.25;;;;;;;;;;4979743;28;20469;-80
2022/01/05 15:29:15;;;;;;;14.73;4.97;;;;;;;;;;4980566;28;20038;-80
2022/01/05 15:31:42;;;;;;;20.15;4.13;;;;;;;;;;4979813;28;20128;-79
2022/01/05 15:34:17;;;;;;;17.65;4.28;;;;;;;;;;4996639;28;20061;-79
2022/01/05 15:36:47;;;;;;;21.20;4.88;;;;;;;;;;4999146;28;20537;-79